createdAt,value
2023-01-02T00:01:04.983Z,11.30
2023-01-02T00:03:32.060Z,11.30
2023-01-02T00:06:01.543Z,11.40
2023-01-02T00:08:28.129Z,11.50
2023-01-02T00:10:54.702Z,11.50
2023-01-02T00:13:21.365Z,11.60
2023-01-02T00:15:48.053Z,11.60
2023-01-02T00:18:15.146Z,11.70
2023-01-02T00:20:41.750Z,11.80
2023-01-02T00:23:08.405Z,11.80
2023-01-02T00:25:35.279Z,11.80
2023-01-02T00:28:02.558Z,11.90
2023-01-02T00:30:33.970Z,11.90
2023-01-02T00:33:05.811Z,11.80
2023-01-02T00:35:32.670Z,11.90
2023-01-02T00:37:59.310Z,11.80
2023-01-02T00:40:26.021Z,11.80
2023-01-02T00:42:52.631Z,11.80
2023-01-02T00:45:19.265Z,11.80
2023-01-02T00:47:45.960Z,11.80
2023-01-02T00:50:12.611Z,11.70
2023-01-02T00:52:39.272Z,11.80
2023-01-02T00:55:06.164Z,11.70
2023-01-02T00:57:32.817Z,11.80
2023-01-02T00:59:59.462Z,11.70
2023-01-02T01:02:26.322Z,11.70
2023-01-02T01:04:52.996Z,11.70
2023-01-02T01:07:19.613Z,11.70
2023-01-02T01:09:46.265Z,11.70
2023-01-02T01:12:12.877Z,11.70
2023-01-02T01:14:39.530Z,11.80
2023-01-02T01:17:06.547Z,11.80
2023-01-02T01:19:34.563Z,11.80
2023-01-02T01:22:01.230Z,11.80
2023-01-02T01:24:28.455Z,11.80
2023-01-02T01:26:55.088Z,11.80
2023-01-02T01:29:21.766Z,11.90
2023-01-02T01:31:48.456Z,11.90
2023-01-02T01:34:15.369Z,11.90
2023-01-02T01:36:41.975Z,11.90
2023-01-02T01:39:08.587Z,11.90
2023-01-02T01:41:35.304Z,11.90
2023-01-02T01:44:03.135Z,11.90
2023-01-02T01:46:41.408Z,11.90
2023-01-02T01:49:13.886Z,11.90
2023-01-02T01:51:52.952Z,11.90
2023-01-02T01:54:25.119Z,11.90
2023-01-02T01:56:57.850Z,11.90
2023-01-02T01:59:25.389Z,11.90
2023-01-02T02:01:52.488Z,11.90
2023-01-02T02:04:21.962Z,11.80
2023-01-02T02:06:50.889Z,11.90
2023-01-02T02:09:27.319Z,11.90
2023-01-02T02:11:55.302Z,11.90
2023-01-02T02:14:22.341Z,11.90
2023-01-02T02:17:07.818Z,11.90
2023-01-02T02:20:02.942Z,11.90
2023-01-02T02:22:57.494Z,11.90
2023-01-02T02:25:48.967Z,12.00
2023-01-02T02:28:34.454Z,12.00
2023-01-02T02:31:26.762Z,12.10
2023-01-02T02:33:58.632Z,12.10
2023-01-02T02:36:47.251Z,12.10
2023-01-02T02:39:39.453Z,12.10
2023-01-02T02:42:45.227Z,12.00
2023-01-02T02:45:50.114Z,12.00
2023-01-02T02:48:20.696Z,12.00
2023-01-02T02:51:06.607Z,12.00
2023-01-02T02:53:42.564Z,12.00
2023-01-02T02:56:11.842Z,12.00
2023-01-02T02:58:41.168Z,12.00
2023-01-02T03:01:13.975Z,12.00
2023-01-02T03:03:40.722Z,12.00
2023-01-02T03:06:42.858Z,12.10
2023-01-02T03:09:23.925Z,12.10
2023-01-02T03:12:22.679Z,12.10
2023-01-02T03:15:09.907Z,12.10
2023-01-02T03:17:36.639Z,12.20
2023-01-02T03:20:09.600Z,12.10
2023-01-02T03:22:40.349Z,12.10
2023-01-02T03:25:09.262Z,12.20
2023-01-02T03:27:41.014Z,12.20
2023-01-02T03:30:22.123Z,12.20
2023-01-02T03:32:59.952Z,12.20
2023-01-02T03:36:04.529Z,12.10
2023-01-02T03:38:39.403Z,12.20
2023-01-02T03:41:16.535Z,12.10
2023-01-02T03:43:48.983Z,12.10
2023-01-02T03:46:32.063Z,12.10
2023-01-02T03:49:10.869Z,12.10
2023-01-02T03:51:37.565Z,12.10
2023-01-02T03:54:05.437Z,12.10
2023-01-02T03:56:50.804Z,12.10
2023-01-02T03:59:26.411Z,12.10
2023-01-02T04:02:18.973Z,12.10
2023-01-02T04:05:08.901Z,12.20
2023-01-02T04:08:01.511Z,12.10
2023-01-02T04:10:30.210Z,12.10
2023-01-02T04:13:05.035Z,12.20
2023-01-02T04:15:34.205Z,12.10
2023-01-02T04:18:06.997Z,12.10
2023-01-02T04:20:47.239Z,12.20
2023-01-02T04:23:36.920Z,12.20
2023-01-02T04:26:28.636Z,12.20
2023-01-02T04:28:55.550Z,12.20
2023-01-02T04:31:30.921Z,12.20
2023-01-02T04:34:00.352Z,12.20
2023-01-02T04:36:27.522Z,12.20
2023-01-02T04:38:54.296Z,12.10
2023-01-02T04:41:28.788Z,12.10
2023-01-02T04:43:59.437Z,12.00
2023-01-02T04:46:27.973Z,12.00
2023-01-02T04:48:55.395Z,11.90
2023-01-02T04:51:22.969Z,11.90
2023-01-02T04:53:53.776Z,11.90
2023-01-02T04:56:20.829Z,11.80
2023-01-02T04:58:48.478Z,11.80
2023-01-02T05:01:17.609Z,11.80
2023-01-02T05:03:47.452Z,11.80
2023-01-02T05:06:15.010Z,11.70
2023-01-02T05:08:42.174Z,11.70
2023-01-02T05:11:15.193Z,11.70
2023-01-02T05:13:42.161Z,11.70
2023-01-02T05:16:09.634Z,11.70
2023-01-02T05:18:36.721Z,11.70
2023-01-02T05:21:06.340Z,11.70
2023-01-02T05:23:51.338Z,11.70
2023-01-02T05:26:18.356Z,11.80
2023-01-02T05:28:45.468Z,11.70
2023-01-02T05:31:15.673Z,11.70
2023-01-02T05:33:42.331Z,11.70
2023-01-02T05:36:09.310Z,11.70
2023-01-02T05:38:36.931Z,11.70
2023-01-02T05:41:05.984Z,11.70
2023-01-02T05:43:34.347Z,11.70
2023-01-02T05:46:12.804Z,11.70
2023-01-02T05:48:40.033Z,11.70
2023-01-02T05:51:08.164Z,11.70
2023-01-02T05:53:35.431Z,11.70
2023-01-02T05:56:06.664Z,11.70
2023-01-02T05:58:35.257Z,11.70
2023-01-02T06:01:09.155Z,11.70
2023-01-02T06:03:35.846Z,11.70
2023-01-02T06:06:10.582Z,11.70
2023-01-02T06:08:38.214Z,11.80
2023-01-02T06:11:07.298Z,11.80
2023-01-02T06:13:36.163Z,11.80
2023-01-02T06:16:04.049Z,11.80
2023-01-02T06:18:32.094Z,11.80
2023-01-02T06:21:00.012Z,11.80
2023-01-02T06:23:27.314Z,11.80
2023-01-02T06:25:54.290Z,11.80
2023-01-02T06:28:21.488Z,11.80
2023-01-02T06:30:48.128Z,11.80
2023-01-02T06:33:14.975Z,11.80
2023-01-02T06:35:42.249Z,11.70
2023-01-02T06:38:08.848Z,11.70
2023-01-02T06:40:35.419Z,11.80
2023-01-02T06:43:02.015Z,11.70
2023-01-02T06:45:28.646Z,11.70
2023-01-02T06:47:58.750Z,11.70
2023-01-02T06:50:29.861Z,11.60
2023-01-02T06:53:01.159Z,11.60
2023-01-02T06:55:27.816Z,11.50
2023-01-02T06:57:54.919Z,11.50
2023-01-02T07:00:21.560Z,11.50
2023-01-02T07:02:48.273Z,11.50
2023-01-02T07:05:17.415Z,11.40
2023-01-02T07:07:47.851Z,11.40
2023-01-02T07:10:14.611Z,11.30
2023-01-02T07:12:41.211Z,11.30
2023-01-02T07:15:08.061Z,11.30
2023-01-02T07:17:34.691Z,11.20
2023-01-02T07:20:02.427Z,11.20
2023-01-02T07:22:29.359Z,11.30
2023-01-02T07:24:55.959Z,11.30
2023-01-02T07:27:22.587Z,11.40
2023-01-02T07:29:49.245Z,11.50
2023-01-02T07:32:15.904Z,11.50
2023-01-02T07:34:42.494Z,11.50
2023-01-02T07:37:09.085Z,11.50
2023-01-02T07:39:35.731Z,11.50
2023-01-02T07:42:02.325Z,11.50
2023-01-02T07:44:29.026Z,11.50
2023-01-02T07:46:55.694Z,11.50
2023-01-02T07:49:22.266Z,11.50
2023-01-02T07:51:49.026Z,11.40
2023-01-02T07:54:15.606Z,11.40
2023-01-02T07:56:42.282Z,11.40
2023-01-02T07:59:09.042Z,11.40
2023-01-02T08:01:35.800Z,11.40
2023-01-02T08:04:02.654Z,11.40
2023-01-02T08:06:29.481Z,11.50
2023-01-02T08:08:56.174Z,11.50
2023-01-02T08:11:23.181Z,11.50
2023-01-02T08:13:50.539Z,11.60
2023-01-02T08:16:20.415Z,11.60
2023-01-02T08:18:47.426Z,11.70
2023-01-02T08:21:14.507Z,11.70
2023-01-02T08:23:41.191Z,11.80
2023-01-02T08:26:09.967Z,11.80
2023-01-02T08:28:38.039Z,11.80
2023-01-02T08:31:17.239Z,11.80
2023-01-02T08:33:43.946Z,11.90
2023-01-02T08:36:11.061Z,11.90
2023-01-02T08:38:38.227Z,11.90
2023-01-02T08:41:05.726Z,12.00
2023-01-02T08:43:34.919Z,12.10
2023-01-02T08:46:09.246Z,12.10
2023-01-02T08:48:36.209Z,12.20
2023-01-02T08:51:03.970Z,12.20
2023-01-02T08:53:30.597Z,12.30
2023-01-02T08:56:22.184Z,12.30
2023-01-02T08:58:53.745Z,12.40
2023-01-02T09:01:20.794Z,12.40
2023-01-02T09:03:48.102Z,12.40
2023-01-02T09:06:21.384Z,12.40
2023-01-02T09:08:48.606Z,12.40
2023-01-02T09:11:18.550Z,12.50
2023-01-02T09:13:45.755Z,12.50
2023-01-02T09:16:12.530Z,12.50
2023-01-02T09:18:40.531Z,12.50
2023-01-02T09:21:07.433Z,12.50
2023-01-02T09:23:34.223Z,12.60
2023-01-02T09:26:03.720Z,12.60
2023-01-02T09:28:32.607Z,12.60
2023-01-02T09:30:59.415Z,12.70
2023-01-02T09:33:26.511Z,12.70
2023-01-02T09:35:53.191Z,12.80
2023-01-02T09:38:19.804Z,12.70
2023-01-02T09:40:51.314Z,12.70
2023-01-02T09:43:27.204Z,12.70
2023-01-02T09:45:58.833Z,12.80
2023-01-02T09:48:31.608Z,12.90
2023-01-02T09:51:02.669Z,12.90
2023-01-02T09:53:34.180Z,13.00
2023-01-02T09:56:34.462Z,13.10
2023-01-02T09:59:15.989Z,13.30
2023-01-02T10:01:52.967Z,13.40
2023-01-02T10:04:25.209Z,13.70
2023-01-02T10:07:05.870Z,13.90
2023-01-02T10:09:50.174Z,14.20
2023-01-02T10:12:37.720Z,14.40
2023-01-02T10:15:10.402Z,14.70
2023-01-02T10:17:45.159Z,14.80
2023-01-02T10:20:17.696Z,14.90
2023-01-02T10:22:53.336Z,15.10
2023-01-02T10:25:48.098Z,15.20
2023-01-02T10:28:46.965Z,15.30
2023-01-02T10:31:27.571Z,15.30
2023-01-02T10:33:58.411Z,15.40
2023-01-02T10:36:31.563Z,15.50
2023-01-02T10:39:01.210Z,15.50
2023-01-02T10:41:29.108Z,15.70
2023-01-02T10:44:31.032Z,15.80
2023-01-02T10:46:59.114Z,16.00
2023-01-02T10:49:26.597Z,16.20
2023-01-02T10:52:07.339Z,16.30
2023-01-02T10:54:55.004Z,16.50
2023-01-02T10:57:31.320Z,16.60
2023-01-02T11:00:00.574Z,16.80
2023-01-02T11:02:37.108Z,16.80
2023-01-02T11:05:05.961Z,17.00
2023-01-02T11:07:36.417Z,17.10
2023-01-02T11:10:04.217Z,17.20
2023-01-02T11:12:32.746Z,17.30
2023-01-02T11:15:13.427Z,17.30
2023-01-02T11:17:44.139Z,17.40
2023-01-02T11:20:37.433Z,17.40
2023-01-02T11:23:04.877Z,17.50
2023-01-02T11:25:42.572Z,17.60
2023-01-02T11:28:39.031Z,17.70
2023-01-02T11:31:09.576Z,17.80
2023-01-02T11:33:37.748Z,17.90
2023-01-02T11:36:04.347Z,18.00
2023-01-02T11:38:53.823Z,18.10
2023-01-02T11:42:08.210Z,18.20
2023-01-02T11:44:45.833Z,18.20
2023-01-02T11:47:14.462Z,18.20
2023-01-02T11:49:45.436Z,18.20
2023-01-02T11:52:18.993Z,18.10
2023-01-02T11:54:54.335Z,18.10
2023-01-02T11:57:35.911Z,18.10
2023-01-02T12:00:04.248Z,18.10
2023-01-02T12:02:38.621Z,18.20
2023-01-02T12:05:15.077Z,18.20
2023-01-02T12:07:47.365Z,18.30
2023-01-02T12:10:41.747Z,18.30
2023-01-02T12:13:49.129Z,18.30
2023-01-02T12:16:18.837Z,18.30
2023-01-02T12:18:48.430Z,18.30
2023-01-02T12:21:30.162Z,18.20
2023-01-02T12:24:23.259Z,18.10
2023-01-02T12:27:15.600Z,17.90
2023-01-02T12:30:01.113Z,17.90
2023-01-02T12:32:47.469Z,17.90
2023-01-02T12:35:35.882Z,18.00
2023-01-02T12:38:07.330Z,18.00
2023-01-02T12:40:45.797Z,18.00
2023-01-02T12:43:54.521Z,18.00
2023-01-02T12:46:41.490Z,18.00
2023-01-02T12:49:25.184Z,17.80
2023-01-02T12:51:57.677Z,17.70
2023-01-02T12:54:56.411Z,17.60
2023-01-02T12:57:30.786Z,17.40
2023-01-02T13:00:40.375Z,17.30
2023-01-02T13:03:35.618Z,17.30
2023-01-02T13:06:45.592Z,17.30
2023-01-02T13:09:42.038Z,17.20
2023-01-02T13:12:23.333Z,17.20
2023-01-02T13:15:12.490Z,17.10
2023-01-02T13:17:50.949Z,17.10
2023-01-02T13:20:27.816Z,17.10
2023-01-02T13:22:55.911Z,17.00
2023-01-02T13:25:23.651Z,17.10
2023-01-02T13:27:51.683Z,17.10
2023-01-02T13:30:33.344Z,17.00
2023-01-02T13:33:03.260Z,17.10
2023-01-02T13:35:32.399Z,17.00
2023-01-02T13:37:59.974Z,17.00
2023-01-02T13:40:32.801Z,17.00
2023-01-02T13:43:06.578Z,17.10
2023-01-02T13:45:43.940Z,17.10
2023-01-02T13:48:22.214Z,17.00
2023-01-02T13:51:18.690Z,17.10
2023-01-02T13:53:50.355Z,17.10
2023-01-02T13:56:19.500Z,17.00
2023-01-02T13:58:49.030Z,17.00
2023-01-02T14:01:21.570Z,17.00
2023-01-02T14:04:08.242Z,16.90
2023-01-02T14:06:46.105Z,16.90
2023-01-02T14:09:20.402Z,16.90
2023-01-02T14:11:56.707Z,16.80
2023-01-02T14:14:29.876Z,16.90
2023-01-02T14:17:05.105Z,16.90
2023-01-02T14:19:31.969Z,16.90
2023-01-02T14:21:58.559Z,16.90
2023-01-02T14:24:30.251Z,16.90
2023-01-02T14:27:19.408Z,16.90
2023-01-02T14:29:53.331Z,17.00
2023-01-02T14:32:43.489Z,16.90
2023-01-02T14:35:13.045Z,16.90
2023-01-02T14:37:51.565Z,16.80
2023-01-02T14:40:24.678Z,16.80
2023-01-02T14:43:30.076Z,16.70
2023-01-02T14:46:20.766Z,16.70
2023-01-02T14:49:01.214Z,16.60
2023-01-02T14:52:02.307Z,16.60
2023-01-02T14:54:51.573Z,16.60
2023-01-02T14:57:33.160Z,16.60
2023-01-02T15:00:04.314Z,16.50
2023-01-02T15:02:36.718Z,16.50
2023-01-02T15:05:22.067Z,16.50
2023-01-02T15:07:52.108Z,16.40
2023-01-02T15:10:21.499Z,16.40
2023-01-02T15:13:06.126Z,16.30
2023-01-02T15:15:46.390Z,16.20
2023-01-02T15:18:32.478Z,16.20
2023-01-02T15:21:10.426Z,16.10
2023-01-02T15:23:42.681Z,16.10
2023-01-02T15:26:31.770Z,16.00
2023-01-02T15:29:06.896Z,16.00
2023-01-02T15:31:34.153Z,15.90
2023-01-02T15:34:01.443Z,15.80
2023-01-02T15:36:41.008Z,15.80
2023-01-02T15:39:12.732Z,15.70
2023-01-02T15:41:46.010Z,15.60
2023-01-02T15:44:32.032Z,15.50
2023-01-02T15:47:00.393Z,15.40
2023-01-02T15:49:27.236Z,15.40
2023-01-02T15:51:57.356Z,15.40
2023-01-02T15:54:24.522Z,15.30
2023-01-02T15:56:51.224Z,15.20
2023-01-02T15:59:24.502Z,15.20
2023-01-02T16:01:51.132Z,15.20
2023-01-02T16:04:27.193Z,15.10
2023-01-02T16:06:55.198Z,15.00
2023-01-02T16:09:31.160Z,15.00
2023-01-02T16:12:00.339Z,15.00
2023-01-02T16:14:44.028Z,14.90
2023-01-02T16:17:26.090Z,14.80
2023-01-02T16:19:59.956Z,14.80
2023-01-02T16:23:03.614Z,14.80
2023-01-02T16:25:33.450Z,14.80
2023-01-02T16:28:35.247Z,14.80
2023-01-02T16:31:08.180Z,14.70
2023-01-02T16:33:34.847Z,14.70
2023-01-02T16:36:04.141Z,14.70
2023-01-02T16:38:49.565Z,14.80
2023-01-02T16:41:34.334Z,14.80
2023-01-02T16:44:01.848Z,14.90
2023-01-02T16:46:29.409Z,14.90
2023-01-02T16:49:02.914Z,14.90
2023-01-02T16:51:32.132Z,15.00
2023-01-02T16:53:58.768Z,15.00
2023-01-02T16:56:25.440Z,15.10
2023-01-02T16:58:52.053Z,15.20
2023-01-02T17:01:20.598Z,15.20
2023-01-02T17:03:47.472Z,15.20
2023-01-02T17:06:18.208Z,15.20
2023-01-02T17:08:44.893Z,15.20
2023-01-02T17:11:23.027Z,15.20
2023-01-02T17:13:50.835Z,15.20
2023-01-02T17:16:18.524Z,15.20
2023-01-02T17:18:45.806Z,15.20
2023-01-02T17:21:12.879Z,15.20
2023-01-02T17:23:39.601Z,15.20
2023-01-02T17:26:06.328Z,15.20
2023-01-02T17:28:33.109Z,15.20
2023-01-02T17:30:59.816Z,15.20
2023-01-02T17:33:26.453Z,15.20
2023-01-02T17:35:53.124Z,15.20
2023-01-02T17:38:19.942Z,15.20
2023-01-02T17:40:46.607Z,15.20
2023-01-02T17:43:13.335Z,15.10
2023-01-02T17:45:42.185Z,15.10
2023-01-02T17:48:12.351Z,15.00
2023-01-02T17:50:40.929Z,15.00
2023-01-02T17:53:08.229Z,15.00
2023-01-02T17:55:34.924Z,14.90
2023-01-02T17:58:01.749Z,14.90
2023-01-02T18:00:28.546Z,14.80
2023-01-02T18:02:55.403Z,14.80
2023-01-02T18:05:22.499Z,14.70
2023-01-02T18:07:49.120Z,14.70
2023-01-02T18:10:20.136Z,14.70
2023-01-02T18:12:48.897Z,14.70
2023-01-02T18:15:16.460Z,14.60
2023-01-02T18:17:43.281Z,14.60
2023-01-02T18:20:16.258Z,14.60
2023-01-02T18:22:49.106Z,14.50
2023-01-02T18:25:29.831Z,14.50
2023-01-02T18:28:01.241Z,14.50
2023-01-02T18:30:28.279Z,14.40
2023-01-02T18:33:10.822Z,14.40
2023-01-02T18:35:59.017Z,14.30
2023-01-02T18:38:36.877Z,14.30
2023-01-02T18:41:22.863Z,14.30
2023-01-02T18:43:53.922Z,14.20
2023-01-02T18:47:04.040Z,14.20
2023-01-02T18:49:28.629Z,14.20
2023-01-02T18:52:05.479Z,14.10
2023-01-02T18:54:32.435Z,14.10
2023-01-02T18:57:17.431Z,14.10
2023-01-02T18:59:47.019Z,14.00
2023-01-02T19:02:47.462Z,14.00
2023-01-02T19:05:22.609Z,14.00
2023-01-02T19:07:49.343Z,14.00
2023-01-02T19:10:39.539Z,14.00
2023-01-02T19:13:19.291Z,14.00
2023-01-02T19:15:51.847Z,14.00
2023-01-02T19:18:24.470Z,14.00
2023-01-02T19:21:01.550Z,13.90
2023-01-02T19:23:31.039Z,13.90
2023-01-02T19:26:12.343Z,13.90
2023-01-02T19:28:48.869Z,13.90
2023-01-02T19:31:16.301Z,13.80
2023-01-02T19:33:48.900Z,13.80
2023-01-02T19:36:23.449Z,13.80
2023-01-02T19:38:51.029Z,13.80
2023-01-02T19:41:37.712Z,13.70
2023-01-02T19:44:04.420Z,13.70
2023-01-02T19:46:31.066Z,13.60
2023-01-02T19:48:57.653Z,13.50
2023-01-02T19:51:24.928Z,13.50
2023-01-02T19:53:51.507Z,13.40
2023-01-02T19:56:18.184Z,13.30
2023-01-02T19:58:44.809Z,13.30
2023-01-02T20:01:11.496Z,13.30
2023-01-02T20:03:38.221Z,13.30
2023-01-02T20:06:04.976Z,13.20
2023-01-02T20:08:34.516Z,13.20
2023-01-02T20:11:01.120Z,13.20
2023-01-02T20:13:27.692Z,13.20
2023-01-02T20:15:54.315Z,13.20
2023-01-02T20:18:21.370Z,13.20
2023-01-02T20:20:47.988Z,13.20
2023-01-02T20:23:15.402Z,13.20
2023-01-02T20:25:42.521Z,13.20
2023-01-02T20:28:09.167Z,13.20
2023-01-02T20:30:35.780Z,13.20
2023-01-02T20:33:02.367Z,13.10
2023-01-02T20:35:29.049Z,13.20
2023-01-02T20:37:55.680Z,13.10
2023-01-02T20:40:22.293Z,13.10
2023-01-02T20:42:48.974Z,13.10
2023-01-02T20:45:15.647Z,13.00
2023-01-02T20:47:42.233Z,13.00
2023-01-02T20:50:09.391Z,13.00
2023-01-02T20:52:36.027Z,12.90
2023-01-02T20:55:02.723Z,12.90
2023-01-02T20:57:29.522Z,12.80
2023-01-02T20:59:56.458Z,12.80
2023-01-02T21:02:23.283Z,12.80
2023-01-02T21:04:50.043Z,12.80
2023-01-02T21:07:16.617Z,12.80
2023-01-02T21:09:43.288Z,12.70
2023-01-02T21:12:29.836Z,12.70
2023-01-02T21:14:56.537Z,12.60
2023-01-02T21:17:23.153Z,12.50
2023-01-02T21:19:49.759Z,12.50
2023-01-02T21:22:16.337Z,12.40
2023-01-02T21:24:42.975Z,12.30
2023-01-02T21:27:13.251Z,12.30
2023-01-02T21:29:40.277Z,12.30
2023-01-02T21:32:07.012Z,12.20
2023-01-02T21:34:33.712Z,12.30
2023-01-02T21:37:00.348Z,12.20
2023-01-02T21:39:26.971Z,12.20
2023-01-02T21:42:12.326Z,12.10
2023-01-02T21:44:38.997Z,12.10
2023-01-02T21:47:05.709Z,12.00
2023-01-02T21:49:34.144Z,12.00
2023-01-02T21:52:01.132Z,11.90
2023-01-02T21:54:28.240Z,11.90
2023-01-02T21:56:55.013Z,11.80
2023-01-02T21:59:25.154Z,11.80
2023-01-02T22:01:56.626Z,11.80
2023-01-02T22:04:23.538Z,11.70
2023-01-02T22:07:30.102Z,11.70
2023-01-02T22:09:36.744Z,11.60
2023-01-02T22:12:05.142Z,11.60
2023-01-02T22:14:37.461Z,11.60
2023-01-02T22:17:06.623Z,11.60
2023-01-02T22:19:33.954Z,11.50
2023-01-02T22:22:01.192Z,11.60
2023-01-02T22:24:28.312Z,11.60
2023-01-02T22:26:57.436Z,11.60
2023-01-02T22:29:44.050Z,11.50
2023-01-02T22:32:14.763Z,11.50
2023-01-02T22:34:43.746Z,11.50
2023-01-02T22:37:12.007Z,11.50
2023-01-02T22:39:40.348Z,11.50
2023-01-02T22:42:59.133Z,11.50
2023-01-02T22:45:21.019Z,11.50
2023-01-02T22:47:47.981Z,11.50
2023-01-02T22:50:23.946Z,11.60
2023-01-02T22:52:50.958Z,11.60
2023-01-02T22:55:23.793Z,11.50
2023-01-02T22:57:51.908Z,11.60
2023-01-02T23:00:22.124Z,11.50
2023-01-02T23:02:49.402Z,11.50
2023-01-02T23:05:18.154Z,11.50
2023-01-02T23:07:45.216Z,11.40
2023-01-02T23:10:12.872Z,11.40
2023-01-02T23:12:39.931Z,11.40
2023-01-02T23:15:08.629Z,11.40
2023-01-02T23:17:54.264Z,11.30
2023-01-02T23:20:21.344Z,11.30
2023-01-02T23:22:48.100Z,11.30
2023-01-02T23:25:15.591Z,11.30
2023-01-02T23:27:42.437Z,11.20
2023-01-02T23:30:09.734Z,11.20
2023-01-02T23:32:36.380Z,11.20
2023-01-02T23:35:03.173Z,11.20
2023-01-02T23:37:29.844Z,11.20
2023-01-02T23:39:56.822Z,11.20
2023-01-02T23:42:23.468Z,11.20
2023-01-02T23:44:50.081Z,11.20
2023-01-02T23:47:19.299Z,11.20
2023-01-02T23:49:46.268Z,11.20
2023-01-02T23:52:13.059Z,11.20
2023-01-02T23:54:39.739Z,11.20
2023-01-02T23:57:06.492Z,11.20
2023-01-02T23:59:33.094Z,11.20
